Time,TemperatureF,DewpointF,PressureIn,WindDirection,WindDirectionDegrees,WindSpeedMPH,WindSpeedGustMPH,Humidity,HourlyPrecipIn,Conditions,Clouds,dailyrainin,SoftwareType,DateUTC
2013-02-19 00:00:00,38.3,23.1,30.13,SW,219,7.0,14.0,54,15.16,,,99.99,Wunderground v.1.15,2013-02-19 05:00:00,
2013-02-19 00:01:00,38.3,23.1,30.13,SSW,206,11.0,16.0,54,15.16,,,99.99,Wunderground v.1.15,2013-02-19 05:01:00,
2013-02-19 00:06:00,38.3,23.1,30.13,SW,216,11.0,11.0,54,14.40,,,99.99,Wunderground v.1.15,2013-02-19 05:06:00,
2013-02-19 00:11:00,38.3,23.1,30.13,South,176,4.0,11.0,54,14.40,,,99.99,Wunderground v.1.15,2013-02-19 05:11:00,
2013-02-19 00:16:00,38.3,23.1,30.13,SW,226,7.0,8.0,54,15.16,,,99.99,Wunderground v.1.15,2013-02-19 05:16:00,
2013-02-19 00:22:00,38.3,23.1,30.11,SW,217,11.0,11.0,54,14.40,,,99.99,Wunderground v.1.15,2013-02-19 05:22:00,
2013-02-19 00:27:00,38.3,22.6,30.11,SSW,192,10.0,11.0,53,14.40,,,99.99,Wunderground v.1.15,2013-02-19 05:27:00,
2013-02-19 00:33:00,38.3,22.6,30.11,SSW,210,10.0,11.0,53,14.40,,,99.99,Wunderground v.1.15,2013-02-19 05:33:00,
2013-02-19 00:38:00,38.2,22.6,30.11,SW,232,7.0,17.0,53,15.16,,,99.99,Wunderground v.1.15,2013-02-19 05:38:00,
2013-02-19 00:46:00,38.0,22.8,30.11,South,171,7.0,7.0,54,14.40,,,99.99,Wunderground v.1.15,2013-02-19 05:46:00,
2013-02-19 00:53:00,37.9,22.7,30.10,SW,224,11.0,14.0,54,15.16,,,99.99,Wunderground v.1.15,2013-02-19 05:53:00,
2013-02-19 00:59:00,37.9,22.7,30.10,SSW,210,6.0,11.0,54,15.16,,,99.99,Wunderground v.1.15,2013-02-19 05:59:00,
2013-02-19 01:06:00,38.0,22.4,30.09,SW,230,8.0,8.0,53,15.16,,,-99.99,Wunderground v.1.15,2013-02-19 06:06:00,
2013-02-19 01:11:00,38.2,22.1,30.09,SSW,206,5.0,14.0,52,15.16,,,-99.99,Wunderground v.1.15,2013-02-19 06:11:00,
2013-02-19 01:19:00,38.3,21.7,30.06,SSW,193,12.0,12.0,51,15.16,,,-99.99,Wunderground v.1.15,2013-02-19 06:19:00,
2013-02-19 01:26:00,38.3,22.2,30.06,SSW,209,12.0,13.0,52,15.16,,,-99.99,Wunderground v.1.15,2013-02-19 06:26:00,
2013-02-19 01:31:00,38.3,22.2,30.06,WSW,246,13.0,13.0,52,14.40,,,-99.99,Wunderground v.1.15,2013-02-19 06:31:00,
2013-02-19 01:37:00,38.5,21.5,30.05,WSW,243,9.0,22.0,50,14.40,,,-99.99,Wunderground v.1.15,2013-02-19 06:37:00,
2013-02-19 01:43:00,38.6,21.1,30.05,SSW,210,5.0,13.0,49,15.16,,,-99.99,Wunderground v.1.15,2013-02-19 06:43:00,
2013-02-19 01:49:00,38.6,21.1,30.05,WSW,248,14.0,14.0,49,15.16,,,-99.99,Wunderground v.1.15,2013-02-19 06:49:00,
2013-02-19 01:56:00,38.9,20.9,30.05,SW,230,15.0,18.0,48,15.16,,,-99.99,Wunderground v.1.15,2013-02-19 06:56:00,
2013-02-19 02:02:00,38.8,21.3,30.05,SSW,208,14.0,14.0,49,14.40,,,-99.99,Wunderground v.1.15,2013-02-19 07:02:00,
2013-02-19 02:07:00,38.6,21.1,30.04,SSW,208,16.0,16.0,49,14.40,,,0.99,Wunderground v.1.15,2013-02-19 07:07:00,
2013-02-19 02:12:00,38.5,21.5,30.04,SW,219,11.0,16.0,50,15.16,,,2.22,Wunderground v.1.15,2013-02-19 07:12:00,
2013-02-19 02:17:00,38.3,21.3,30.05,SW,223,12.0,16.0,50,15.16,,,3.53,Wunderground v.1.15,2013-02-19 07:17:00,
2013-02-19 02:23:00,38.2,21.2,30.05,SSW,200,1.0,16.0,50,15.16,,,4.84,Wunderground v.1.15,2013-02-19 07:23:00,
2013-02-19 02:28:00,38.0,21.0,30.05,SW,233,7.0,12.0,50,15.16,,,6.07,Wunderground v.1.15,2013-02-19 07:28:00,
2013-02-19 02:33:00,37.9,21.8,30.05,SW,222,15.0,15.0,52,14.40,,,7.30,Wunderground v.1.15,2013-02-19 07:33:00,
2013-02-19 02:39:00,37.8,21.3,30.05,SW,222,10.0,18.0,51,15.16,,,8.61,Wunderground v.1.15,2013-02-19 07:39:00,
2013-02-19 02:47:00,37.8,21.7,30.04,SW,215,8.0,9.0,52,15.16,,,10.56,Wunderground v.1.15,2013-02-19 07:47:00,
2013-02-19 02:52:00,37.6,21.5,30.04,SW,222,12.0,13.0,52,15.16,,,11.75,Wunderground v.1.15,2013-02-19 07:52:00,
2013-02-19 02:57:00,37.6,21.5,30.04,South,185,4.0,12.0,52,15.16,,,12.98,Wunderground v.1.15,2013-02-19 07:57:00,
2013-02-19 03:03:00,37.6,22.0,30.05,WSW,248,8.0,12.0,53,15.16,,,14.29,Wunderground v.1.15,2013-02-19 08:03:00,
2013-02-19 03:08:00,37.5,22.3,30.05,SSW,205,8.0,9.0,54,15.16,,,15.52,Wunderground v.1.15,2013-02-19 08:08:00,
2013-02-19 03:13:00,37.5,22.3,30.05,SW,224,12.0,14.0,54,15.16,,,16.75,Wunderground v.1.15,2013-02-19 08:13:00,
2013-02-19 03:18:00,37.5,22.8,30.05,SW,222,6.0,10.0,55,15.16,,,17.94,Wunderground v.1.15,2013-02-19 08:18:00,
2013-02-19 03:23:00,37.3,22.6,30.05,SSE,164,8.0,13.0,55,15.16,,,19.17,Wunderground v.1.15,2013-02-19 08:23:00,
2013-02-19 03:28:00,37.3,23.0,30.05,West,270,6.0,8.0,56,14.40,,,20.36,Wunderground v.1.15,2013-02-19 08:28:00,
2013-02-19 03:34:00,37.3,23.4,30.03,SW,236,7.0,10.0,57,14.40,,,21.63,Wunderground v.1.15,2013-02-19 08:34:00,
2013-02-19 03:39:00,37.2,23.4,30.03,WSW,248,7.0,7.0,57,15.16,,,22.82,Wunderground v.1.15,2013-02-19 08:39:00,
2013-02-19 03:44:00,37.2,23.8,30.03,SW,236,6.0,12.0,58,14.40,,,24.21,Wunderground v.1.15,2013-02-19 08:44:00,
2013-02-19 03:49:00,37.2,23.8,30.02,SSW,205,13.0,13.0,58,14.40,,,25.44,Wunderground v.1.15,2013-02-19 08:49:00,
2013-02-19 03:54:00,37.2,23.8,30.02,SSW,205,5.0,13.0,58,14.40,,,26.55,Wunderground v.1.15,2013-02-19 08:54:00,
2013-02-19 03:59:00,37.2,24.2,30.02,SSW,212,12.0,12.0,59,14.40,,,27.78,Wunderground v.1.15,2013-02-19 08:59:00,
2013-02-19 04:05:00,37.3,24.7,30.02,SW,227,7.0,10.0,60,15.16,,,29.09,Wunderground v.1.15,2013-02-19 09:05:00,
2013-02-19 04:11:00,37.2,24.6,30.02,WSW,246,7.0,16.0,60,15.16,,,30.28,Wunderground v.1.15,2013-02-19 09:11:00,
2013-02-19 04:16:00,37.2,24.6,30.02,SSW,199,10.0,10.0,60,15.16,,,31.79,Wunderground v.1.15,2013-02-19 09:16:00,
2013-02-19 04:21:00,37.2,24.6,30.04,WSW,241,14.0,14.0,60,15.16,,,33.02,Wunderground v.1.15,2013-02-19 09:21:00,
2013-02-19 04:27:00,37.2,24.6,30.04,SW,233,7.0,11.0,60,15.16,,,34.29,Wunderground v.1.15,2013-02-19 09:27:00,
2013-02-19 04:32:00,37.3,24.7,30.04,SW,227,7.0,13.0,60,14.40,,,35.48,Wunderground v.1.15,2013-02-19 09:32:00,
2013-02-19 04:37:00,37.0,26.3,30.05,SSE,162,4.0,8.0,65,14.40,,,36.67,Wunderground v.1.15,2013-02-19 09:37:00,
2013-02-19 04:42:00,36.2,28.0,30.05,SSW,208,9.0,15.0,72,15.16,,,38.02,Wunderground v.1.15,2013-02-19 09:42:00,
2013-02-19 04:47:00,35.0,28.2,30.05,SW,229,14.0,19.0,76,15.16,,,39.17,Wunderground v.1.15,2013-02-19 09:47:00,
2013-02-19 04:52:00,34.3,29.1,30.05,WSW,253,13.0,19.0,81,14.40,,,40.48,Wunderground v.1.15,2013-02-19 09:52:00,
2013-02-19 04:58:00,33.4,29.7,30.05,SW,229,6.0,8.0,86,15.16,,,41.71,Wunderground v.1.15,2013-02-19 09:58:00,
2013-02-19 05:04:00,32.8,30.2,30.05,WSW,239,8.0,8.0,90,15.16,,,43.06,Wunderground v.1.15,2013-02-19 10:04:00,
2013-02-19 05:09:00,32.5,30.2,30.05,SSW,213,1.0,10.0,91,15.16,,,44.33,Wunderground v.1.15,2013-02-19 10:09:00,
2013-02-19 05:14:00,32.4,30.3,30.05,WSW,246,6.0,6.0,92,14.40,,,45.48,Wunderground v.1.15,2013-02-19 10:14:00,
2013-02-19 05:19:00,32.2,30.4,30.07,WSW,250,5.0,6.0,93,15.16,,,46.60,Wunderground v.1.15,2013-02-19 10:19:00,
2013-02-19 05:26:00,32.1,30.6,30.07,WSW,254,2.0,3.0,94,15.16,,,48.38,Wunderground v.1.15,2013-02-19 10:26:00,
2013-02-19 05:31:00,31.9,30.4,30.07,WSW,253,0.0,5.0,94,15.16,,,49.69,Wunderground v.1.15,2013-02-19 10:31:00,
2013-02-19 05:36:00,31.9,30.4,30.06,WSW,257,0.0,1.0,94,15.16,,,50.88,Wunderground v.1.15,2013-02-19 10:36:00,
2013-02-19 05:41:00,31.9,30.4,30.06,WSW,257,0.0,1.0,94,15.16,,,52.07,Wunderground v.1.15,2013-02-19 10:41:00,
2013-02-19 05:47:00,31.8,30.3,30.06,WSW,257,0.0,0.0,94,14.40,,,53.38,Wunderground v.1.15,2013-02-19 10:47:00,
2013-02-19 05:52:00,31.6,30.3,30.05,WSW,257,0.0,1.0,95,14.40,,,54.57,Wunderground v.1.15,2013-02-19 10:52:00,
2013-02-19 05:57:00,31.6,30.3,30.05,WSW,257,0.0,0.0,95,14.40,,,55.72,Wunderground v.1.15,2013-02-19 10:57:00,
2013-02-19 06:02:00,31.6,30.3,30.05,WSW,257,0.0,0.0,95,14.40,,,56.95,Wunderground v.1.15,2013-02-19 11:02:00,
2013-02-19 06:07:00,31.5,30.2,30.05,SW,215,0.0,0.0,95,15.16,,,58.18,Wunderground v.1.15,2013-02-19 11:07:00,
2013-02-19 06:12:00,31.3,30.0,30.05,South,191,0.0,0.0,95,15.16,,,59.45,Wunderground v.1.15,2013-02-19 11:12:00,
2013-02-19 06:17:00,31.2,29.9,30.05,South,189,0.0,0.0,95,15.16,,,60.68,Wunderground v.1.15,2013-02-19 11:17:00,
2013-02-19 06:23:00,31.0,29.7,30.05,South,181,0.0,0.0,95,14.40,,,61.91,Wunderground v.1.15,2013-02-19 11:23:00,
2013-02-19 06:28:00,31.0,30.0,30.05,SSE,167,0.0,0.0,96,15.16,,,63.26,Wunderground v.1.15,2013-02-19 11:28:00,
2013-02-19 06:34:00,31.0,30.0,30.05,SSE,167,0.0,0.0,96,15.16,,,64.57,Wunderground v.1.15,2013-02-19 11:34:00,
2013-02-19 06:39:00,31.0,30.0,30.05,SSE,168,0.0,0.0,96,15.16,,,65.72,Wunderground v.1.15,2013-02-19 11:39:00,
2013-02-19 06:46:00,31.0,30.0,30.05,SSW,199,0.0,0.0,96,14.40,,,67.47,Wunderground v.1.15,2013-02-19 11:46:00,
2013-02-19 06:51:00,30.9,29.9,30.04,SSW,193,0.0,1.0,96,14.40,,,68.66,Wunderground v.1.15,2013-02-19 11:51:00,
2013-02-19 06:59:00,31.2,30.4,30.04,SSW,198,0.0,0.0,97,15.16,,,70.57,Wunderground v.1.15,2013-02-19 11:59:00,
2013-02-19 07:06:00,31.3,30.5,30.03,SSW,208,0.0,1.0,97,15.16,,,72.27,Wunderground v.1.15,2013-02-19 12:06:00,
2013-02-19 07:11:00,31.3,30.5,30.03,SW,220,0.0,4.0,97,15.16,,,73.54,Wunderground v.1.15,2013-02-19 12:11:00,
2013-02-19 07:17:00,31.5,30.7,30.03,SSW,202,5.0,5.0,97,14.40,,,74.73,Wunderground v.1.15,2013-02-19 12:17:00,
2013-02-19 07:22:00,31.6,31.1,30.02,SSW,202,2.0,7.0,98,15.16,,,76.08,Wunderground v.1.15,2013-02-19 12:22:00,
2013-02-19 07:27:00,31.8,31.3,30.02,SSW,192,7.0,7.0,98,15.16,,,77.31,Wunderground v.1.15,2013-02-19 12:27:00,
2013-02-19 07:33:00,31.8,31.3,30.01,SSW,213,2.0,8.0,98,14.40,,,78.54,Wunderground v.1.15,2013-02-19 12:33:00,
2013-02-19 07:38:00,31.8,31.3,30.01,SW,223,0.0,3.0,98,15.16,,,79.89,Wunderground v.1.15,2013-02-19 12:38:00,
2013-02-19 07:43:00,31.9,31.4,30.01,SSW,192,0.0,3.0,98,15.16,,,81.08,Wunderground v.1.15,2013-02-19 12:43:00,
2013-02-19 07:48:00,31.9,31.4,30.01,SSW,203,0.0,1.0,98,15.16,,,82.31,Wunderground v.1.15,2013-02-19 12:48:00,
2013-02-19 07:53:00,31.9,31.4,30.01,SSW,203,0.0,1.0,98,15.16,,,83.50,Wunderground v.1.15,2013-02-19 12:53:00,
2013-02-19 07:58:00,31.9,31.4,30.01,SSW,203,0.0,0.0,98,15.16,,,84.62,Wunderground v.1.15,2013-02-19 12:58:00,
2013-02-19 08:03:00,31.9,31.4,30.00,SSW,203,0.0,0.0,98,14.40,,,85.93,Wunderground v.1.15,2013-02-19 13:03:00,
2013-02-19 08:08:00,32.1,31.6,30.00,SSW,203,0.0,0.0,98,14.40,,,87.12,Wunderground v.1.15,2013-02-19 13:08:00,
2013-02-19 08:14:00,32.1,31.6,30.00,SSW,203,0.0,0.0,98,15.16,,,88.39,Wunderground v.1.15,2013-02-19 13:14:00,
2013-02-19 08:19:00,32.2,31.7,30.01,South,178,0.0,0.0,98,15.16,,,89.58,Wunderground v.1.15,2013-02-19 13:19:00,
2013-02-19 08:24:00,32.2,31.7,30.01,South,169,0.0,0.0,98,15.16,,,90.81,Wunderground v.1.15,2013-02-19 13:24:00,
2013-02-19 08:29:00,32.1,31.6,30.01,WNW,282,0.0,0.0,98,15.16,,,91.96,Wunderground v.1.15,2013-02-19 13:29:00,
2013-02-19 08:34:00,32.1,31.6,30.01,South,171,0.0,0.0,98,15.16,,,93.19,Wunderground v.1.15,2013-02-19 13:34:00,
2013-02-19 08:39:00,32.1,31.6,30.01,South,186,0.0,1.0,98,15.16,,,94.38,Wunderground v.1.15,2013-02-19 13:39:00,
2013-02-19 08:44:00,32.1,31.6,30.01,South,185,0.0,0.0,98,14.40,,,95.69,Wunderground v.1.15,2013-02-19 13:44:00,
2013-02-19 08:50:00,32.2,31.7,30.01,South,174,0.0,3.0,98,14.40,,,97.00,Wunderground v.1.15,2013-02-19 13:50:00,
2013-02-19 08:57:00,32.2,31.7,30.01,SSW,208,0.0,0.0,98,14.40,,,98.59,Wunderground v.1.15,2013-02-19 13:57:00,
2013-02-19 09:02:00,32.2,31.7,30.01,South,171,0.0,0.0,98,14.40,,,99.78,Wunderground v.1.15,2013-02-19 14:02:00,
2013-02-19 09:07:00,32.4,32.2,30.01,ESE,102,0.0,0.0,99,14.40,,,99.99,Wunderground v.1.15,2013-02-19 14:07:00,
2013-02-19 09:12:00,32.4,32.2,30.01,East,99,0.0,0.0,99,15.16,,,99.99,Wunderground v.1.15,2013-02-19 14:12:00,
2013-02-19 09:17:00,32.4,32.2,30.01,East,99,0.0,0.0,99,15.16,,,99.99,Wunderground v.1.15,2013-02-19 14:17:00,
2013-02-19 09:22:00,32.4,32.2,30.01,East,96,0.0,0.0,99,15.16,,,99.99,Wunderground v.1.15,2013-02-19 14:22:00,
2013-02-19 09:27:00,32.5,32.3,30.01,SSE,161,0.0,0.0,99,15.16,,,99.99,Wunderground v.1.15,2013-02-19 14:27:00,
2013-02-19 09:33:00,32.7,32.5,30.01,SSE,161,0.0,0.0,99,14.40,,,99.99,Wunderground v.1.15,2013-02-19 14:33:00,
2013-02-19 09:38:00,32.9,32.7,30.01,SSE,160,0.0,0.0,99,15.16,,,99.99,Wunderground v.1.15,2013-02-19 14:38:00,
2013-02-19 09:43:00,33.1,32.9,30.01,SSE,148,0.0,0.0,99,15.16,,,99.99,Wunderground v.1.15,2013-02-19 14:43:00,
2013-02-19 09:48:00,33.1,32.9,30.00,SW,226,0.0,0.0,99,15.16,,,99.99,Wunderground v.1.15,2013-02-19 14:48:00,
2013-02-19 09:53:00,33.1,32.9,30.00,South,184,0.0,0.0,99,15.16,,,99.99,Wunderground v.1.15,2013-02-19 14:53:00,
2013-02-19 09:58:00,33.2,33.0,30.00,East,93,0.0,0.0,99,14.40,,,99.99,Wunderground v.1.15,2013-02-19 14:58:00,
2013-02-19 10:03:00,33.2,33.0,30.00,ENE,69,0.0,0.0,99,14.40,,,99.99,Wunderground v.1.15,2013-02-19 15:03:00,
2013-02-19 10:09:00,33.4,33.1,30.00,East,92,0.0,0.0,99,14.40,,,99.99,Wunderground v.1.15,2013-02-19 15:09:00,
2013-02-19 10:14:00,33.5,33.2,30.00,SE,136,0.0,0.0,99,14.40,,,99.99,Wunderground v.1.15,2013-02-19 15:14:00,
2013-02-19 10:19:00,33.5,33.2,30.00,South,186,0.0,0.0,99,15.16,,,99.99,Wunderground v.1.15,2013-02-19 15:19:00,
2013-02-19 10:24:00,33.7,33.4,30.00,South,182,0.0,0.0,99,15.16,,,99.99,Wunderground v.1.15,2013-02-19 15:24:00,
2013-02-19 10:29:00,33.7,33.4,30.00,South,171,0.0,0.0,99,15.16,,,99.99,Wunderground v.1.15,2013-02-19 15:29:00,
2013-02-19 10:34:00,34.0,33.7,30.00,East,90,1.0,1.0,99,15.16,,,99.99,Wunderground v.1.15,2013-02-19 15:34:00,
2013-02-19 10:39:00,33.8,33.5,30.00,ENE,75,0.0,2.0,99,15.16,,,99.99,Wunderground v.1.15,2013-02-19 15:39:00,
2013-02-19 10:46:00,34.0,33.7,30.00,ENE,69,0.0,2.0,99,14.40,,,99.99,Wunderground v.1.15,2013-02-19 15:46:00,
2013-02-19 10:51:00,34.0,33.7,30.00,ENE,69,0.0,0.0,99,15.16,,,99.99,Wunderground v.1.15,2013-02-19 15:51:00,
2013-02-19 10:56:00,34.3,34.0,30.00,ENE,62,0.0,0.0,99,15.16,,,99.99,Wunderground v.1.15,2013-02-19 15:56:00,
2013-02-19 11:01:00,34.6,34.6,30.00,ENE,69,0.0,0.0,100,15.16,,,99.99,Wunderground v.1.15,2013-02-19 16:01:00,
2013-02-19 11:07:00,34.7,34.7,29.99,ENE,68,0.0,0.0,100,14.40,,,99.99,Wunderground v.1.15,2013-02-19 16:07:00,
2013-02-19 11:12:00,34.9,34.9,29.99,ENE,68,0.0,0.0,100,15.16,,,99.99,Wunderground v.1.15,2013-02-19 16:12:00,
2013-02-19 11:18:00,35.3,35.3,29.99,ENE,68,0.0,0.0,100,14.40,,,99.99,Wunderground v.1.15,2013-02-19 16:18:00,
2013-02-19 11:24:00,36.0,36.0,29.99,ENE,62,0.0,0.0,100,14.40,,,99.99,Wunderground v.1.15,2013-02-19 16:24:00,
2013-02-19 11:29:00,36.5,36.5,29.99,ENE,62,0.0,0.0,100,14.40,,,99.99,Wunderground v.1.15,2013-02-19 16:29:00,
2013-02-19 11:34:00,36.6,36.6,29.98,ENE,61,0.0,0.0,100,15.16,,,99.99,Wunderground v.1.15,2013-02-19 16:34:00,
2013-02-19 11:39:00,37.2,37.2,29.98,North,349,0.0,2.0,100,15.16,,,99.99,Wunderground v.1.15,2013-02-19 16:39:00,
2013-02-19 11:44:00,37.5,37.5,29.98,North,354,0.0,0.0,100,15.16,,,99.99,Wunderground v.1.15,2013-02-19 16:44:00,
2013-02-19 11:49:00,37.8,37.8,29.98,WNW,294,0.0,0.0,100,14.40,,,99.99,Wunderground v.1.15,2013-02-19 16:49:00,
2013-02-19 11:55:00,38.0,38.0,29.98,WNW,299,0.0,0.0,100,15.16,,,99.99,Wunderground v.1.15,2013-02-19 16:55:00,
2013-02-19 12:00:00,39.2,39.2,29.98,SW,236,0.0,4.0,100,14.40,,,99.99,Wunderground v.1.15,2013-02-19 17:00:00,
2013-02-19 12:05:00,40.3,40.3,29.96,WSW,241,0.0,0.0,100,14.40,,,99.99,Wunderground v.1.15,2013-02-19 17:05:00,
2013-02-19 12:12:00,41.9,41.9,29.96,NW,318,0.0,0.0,100,15.16,,,99.99,Wunderground v.1.15,2013-02-19 17:12:00,
2013-02-19 12:17:00,42.5,42.5,29.95,SSE,158,1.0,11.0,100,15.16,,,99.99,Wunderground v.1.15,2013-02-19 17:17:00,
2013-02-19 12:22:00,43.3,43.3,29.95,WSW,254,4.0,11.0,100,15.16,,,99.99,Wunderground v.1.15,2013-02-19 17:22:00,
2013-02-19 12:27:00,44.2,44.2,29.95,NNW,329,0.0,6.0,100,15.16,,,99.99,Wunderground v.1.15,2013-02-19 17:27:00,
2013-02-19 12:33:00,45.2,44.1,29.94,West,274,2.0,6.0,96,14.40,,,99.99,Wunderground v.1.15,2013-02-19 17:33:00,
2013-02-19 12:38:00,45.8,42.4,29.94,West,275,4.0,8.0,88,14.40,,,99.99,Wunderground v.1.15,2013-02-19 17:38:00,
2013-02-19 12:43:00,46.7,42.1,29.94,WSW,253,1.0,10.0,84,15.16,,,99.99,Wunderground v.1.15,2013-02-19 17:43:00,
2013-02-19 12:48:00,46.7,40.5,29.93,SW,236,0.0,3.0,79,15.16,,,99.99,Wunderground v.1.15,2013-02-19 17:48:00,
2013-02-19 12:54:00,47.3,41.8,29.93,NNW,343,0.0,1.0,81,14.40,,,99.99,Wunderground v.1.15,2013-02-19 17:54:00,
2013-02-19 12:59:00,47.9,41.0,29.93,SW,220,7.0,11.0,77,15.16,,,99.99,Wunderground v.1.15,2013-02-19 17:59:00,
2013-02-19 13:04:00,47.7,41.2,29.93,West,270,2.0,3.0,78,15.16,,,99.99,Wunderground v.1.15,2013-02-19 18:04:00,
2013-02-19 13:09:00,48.3,39.7,29.93,West,278,12.0,12.0,72,15.16,,,99.99,Wunderground v.1.15,2013-02-19 18:09:00,
2013-02-19 13:16:00,48.5,39.2,29.93,WNW,282,0.0,5.0,70,15.16,,,99.99,Wunderground v.1.15,2013-02-19 18:16:00,
2013-02-19 13:22:00,48.9,39.2,29.91,WSW,237,1.0,6.0,69,14.40,,,99.99,Wunderground v.1.15,2013-02-19 18:22:00,
2013-02-19 13:27:00,49.4,39.3,29.91,SSW,198,0.0,2.0,68,14.40,,,99.99,Wunderground v.1.15,2013-02-19 18:27:00,
2013-02-19 13:32:00,49.5,37.8,29.90,SW,223,2.0,10.0,64,14.40,,,99.99,Wunderground v.1.15,2013-02-19 18:32:00,
2013-02-19 13:38:00,49.5,37.0,29.90,SW,229,13.0,13.0,62,14.40,,,99.99,Wunderground v.1.15,2013-02-19 18:38:00,
2013-02-19 13:43:00,49.1,36.6,29.90,NNW,340,1.0,16.0,62,15.16,,,99.99,Wunderground v.1.15,2013-02-19 18:43:00,
2013-02-19 13:48:00,49.1,36.2,29.90,SW,220,0.0,13.0,61,15.16,,,99.99,Wunderground v.1.15,2013-02-19 18:48:00,
2013-02-19 13:53:00,49.6,36.7,29.90,WSW,250,1.0,13.0,61,15.16,,,99.99,Wunderground v.1.15,2013-02-19 18:53:00,
2013-02-19 13:58:00,49.9,36.1,29.90,South,178,12.0,12.0,59,15.16,,,99.99,Wunderground v.1.15,2013-02-19 18:58:00,
2013-02-19 14:03:00,49.4,33.9,29.90,WSW,250,0.0,12.0,55,14.40,,,99.99,Wunderground v.1.15,2013-02-19 19:03:00,
2013-02-19 14:09:00,48.8,33.3,29.90,West,264,3.0,13.0,55,14.40,,,99.99,Wunderground v.1.15,2013-02-19 19:09:00,
2013-02-19 14:14:00,48.9,31.5,29.90,SW,222,0.0,4.0,51,15.16,,,99.99,Wunderground v.1.15,2013-02-19 19:14:00,
2013-02-19 14:19:00,49.6,32.2,29.90,WSW,258,2.0,8.0,51,15.16,,,99.99,Wunderground v.1.15,2013-02-19 19:19:00,
2013-02-19 14:26:00,49.9,31.5,29.90,West,268,2.0,6.0,49,15.16,,,99.99,Wunderground v.1.15,2013-02-19 19:26:00,
2013-02-19 14:31:00,49.8,29.8,29.90,WSW,243,3.0,9.0,46,15.16,,,99.99,Wunderground v.1.15,2013-02-19 19:31:00,
2013-02-19 14:36:00,50.1,30.1,29.88,West,267,7.0,7.0,46,15.16,,,99.99,Wunderground v.1.15,2013-02-19 19:36:00,
2013-02-19 14:42:00,50.5,29.9,29.88,NE,47,3.0,14.0,45,15.16,,,99.99,Wunderground v.1.15,2013-02-19 19:42:00,
2013-02-19 14:47:00,51.3,27.8,29.88,WSW,243,10.0,12.0,40,15.16,,,99.99,Wunderground v.1.15,2013-02-19 19:47:00,
2013-02-19 14:52:00,51.3,29.0,29.88,NNE,21,3.0,12.0,42,15.16,,,99.99,Wunderground v.1.15,2013-02-19 19:52:00,
2013-02-19 14:57:00,51.1,29.4,29.88,WNW,285,11.0,11.0,43,14.40,,,99.99,Wunderground v.1.15,2013-02-19 19:57:00,
2013-02-19 15:03:00,50.5,27.0,29.88,WSW,256,12.0,26.0,40,14.40,,,99.99,Wunderground v.1.15,2013-02-19 20:03:00,
2013-02-19 15:08:00,51.1,29.4,29.88,West,264,6.0,12.0,43,14.40,,,99.99,Wunderground v.1.15,2013-02-19 20:08:00,
2013-02-19 15:13:00,50.8,29.1,29.88,NW,308,11.0,12.0,43,15.16,,,99.99,Wunderground v.1.15,2013-02-19 20:13:00,
2013-02-19 15:18:00,50.7,28.4,29.89,West,268,10.0,10.0,42,14.40,,,99.99,Wunderground v.1.15,2013-02-19 20:18:00,
2013-02-19 15:24:00,51.0,29.3,29.89,WSW,257,0.0,6.0,43,15.16,,,99.99,Wunderground v.1.15,2013-02-19 20:24:00,
2013-02-19 15:29:00,51.0,29.3,29.89,NW,304,7.0,11.0,43,15.16,,,99.99,Wunderground v.1.15,2013-02-19 20:29:00,
2013-02-19 15:36:00,50.7,29.0,29.89,WSW,250,0.0,6.0,43,15.16,,,99.99,Wunderground v.1.15,2013-02-19 20:36:00,
2013-02-19 15:41:00,50.7,30.1,29.89,West,275,0.0,11.0,45,15.16,,,99.99,Wunderground v.1.15,2013-02-19 20:41:00,
2013-02-19 15:47:00,50.7,27.2,29.89,West,270,4.0,7.0,40,14.40,,,99.99,Wunderground v.1.15,2013-02-19 20:47:00,
2013-02-19 15:52:00,51.1,29.4,29.90,WSW,257,0.0,7.0,43,14.40,,,99.99,Wunderground v.1.15,2013-02-19 20:52:00,
2013-02-19 15:57:00,50.8,29.6,29.90,WSW,257,1.0,5.0,44,14.40,,,99.99,Wunderground v.1.15,2013-02-19 20:57:00,
2013-02-19 16:02:00,50.8,28.5,29.90,NW,318,1.0,11.0,42,15.16,,,99.99,Wunderground v.1.15,2013-02-19 21:02:00,
2013-02-19 16:07:00,50.5,30.5,29.90,NW,304,6.0,6.0,46,15.16,,,99.99,Wunderground v.1.15,2013-02-19 21:07:00,
2013-02-19 16:12:00,50.5,30.5,29.90,West,261,0.0,7.0,46,15.16,,,99.99,Wunderground v.1.15,2013-02-19 21:12:00,
2013-02-19 16:17:00,51.3,29.5,29.91,West,261,8.0,11.0,43,15.16,,,99.99,Wunderground v.1.15,2013-02-19 21:17:00,
2013-02-19 16:23:00,50.1,26.1,29.91,NW,315,6.0,19.0,39,15.16,,,99.99,Wunderground v.1.15,2013-02-19 21:23:00,
2013-02-19 16:29:00,49.6,26.8,29.91,NNW,332,9.0,13.0,41,14.40,,,99.99,Wunderground v.1.15,2013-02-19 21:29:00,
2013-02-19 16:34:00,49.6,27.4,29.93,WNW,285,1.0,5.0,42,15.16,,,99.99,Wunderground v.1.15,2013-02-19 21:34:00,
2013-02-19 16:39:00,49.2,25.9,29.93,WNW,287,2.0,10.0,40,15.16,,,99.99,Wunderground v.1.15,2013-02-19 21:39:00,
2013-02-19 16:44:00,48.5,25.2,29.93,SW,234,12.0,12.0,40,14.40,,,99.99,Wunderground v.1.15,2013-02-19 21:44:00,
2013-02-19 16:49:00,48.0,24.2,29.94,East,88,4.0,16.0,39,14.40,,,99.99,Wunderground v.1.15,2013-02-19 21:49:00,
2013-02-19 16:56:00,47.6,22.6,29.94,WNW,302,5.0,5.0,37,14.40,,,99.99,Wunderground v.1.15,2013-02-19 21:56:00,
2013-02-19 17:01:00,47.4,23.7,29.94,South,172,0.0,11.0,39,15.16,,,99.99,Wunderground v.1.15,2013-02-19 22:01:00,
2013-02-19 17:06:00,47.3,22.9,29.94,West,267,0.0,2.0,38,15.16,,,99.99,Wunderground v.1.15,2013-02-19 22:06:00,
2013-02-19 17:11:00,47.1,22.1,29.94,West,271,2.0,8.0,37,15.16,,,99.99,Wunderground v.1.15,2013-02-19 22:11:00,
2013-02-19 17:16:00,47.1,22.8,29.94,West,270,0.0,1.0,38,15.16,,,99.99,Wunderground v.1.15,2013-02-19 22:16:00,
2013-02-19 17:22:00,47.0,21.4,29.96,ENE,78,3.0,6.0,36,15.16,,,99.99,Wunderground v.1.15,2013-02-19 22:22:00,
2013-02-19 17:27:00,46.5,20.3,29.96,SW,230,6.0,6.0,35,15.16,,,99.99,Wunderground v.1.15,2013-02-19 22:27:00,
2013-02-19 17:32:00,46.4,20.9,29.96,WSW,257,0.0,10.0,36,14.40,,,99.99,Wunderground v.1.15,2013-02-19 22:32:00,
2013-02-19 17:38:00,46.1,19.2,29.96,NW,309,0.0,3.0,34,14.40,,,99.99,Wunderground v.1.15,2013-02-19 22:38:00,
2013-02-19 17:43:00,46.1,19.9,29.96,WNW,287,0.0,3.0,35,14.40,,,99.99,Wunderground v.1.15,2013-02-19 22:43:00,
2013-02-19 17:48:00,45.8,19.7,29.97,NE,37,0.0,1.0,35,14.40,,,99.99,Wunderground v.1.15,2013-02-19 22:48:00,
2013-02-19 17:53:00,45.5,22.5,29.97,West,272,0.0,2.0,40,15.16,,,99.99,Wunderground v.1.15,2013-02-19 22:53:00,
2013-02-19 17:58:00,45.5,19.4,29.97,NNW,342,0.0,0.0,35,14.40,,,99.99,Wunderground v.1.15,2013-02-19 22:58:00,
2013-02-19 18:04:00,44.8,20.1,29.97,NW,312,0.0,7.0,37,14.40,,,99.99,Wunderground v.1.15,2013-02-19 23:04:00,
2013-02-19 18:09:00,44.2,19.5,29.97,WNW,288,0.0,1.0,37,14.40,,,99.99,Wunderground v.1.15,2013-02-19 23:09:00,
2013-02-19 18:16:00,43.2,18.6,29.97,West,271,0.0,2.0,37,14.40,,,99.99,Wunderground v.1.15,2013-02-19 23:16:00,
2013-02-19 18:21:00,42.5,19.3,29.98,WNW,287,1.0,7.0,39,14.40,,,99.99,Wunderground v.1.15,2013-02-19 23:21:00,
2013-02-19 18:27:00,42.2,19.0,29.98,SW,234,0.0,2.0,39,15.16,,,99.99,Wunderground v.1.15,2013-02-19 23:27:00,
2013-02-19 18:32:00,41.9,18.1,29.98,North,0,6.0,6.0,38,15.16,,,99.99,Wunderground v.1.15,2013-02-19 23:32:00,
2013-02-19 18:37:00,41.8,18.0,30.00,West,277,2.0,2.0,38,14.40,,,99.99,Wunderground v.1.15,2013-02-19 23:37:00,
2013-02-19 18:42:00,41.5,16.5,30.00,North,349,0.0,9.0,36,15.16,,,99.99,Wunderground v.1.15,2013-02-19 23:42:00,
2013-02-19 18:47:00,41.2,14.9,30.01,SW,229,2.0,6.0,34,14.40,,,99.99,Wunderground v.1.15,2013-02-19 23:47:00,
2013-02-19 18:53:00,41.1,14.8,30.01,WNW,295,6.0,13.0,34,15.16,,,99.99,Wunderground v.1.15,2013-02-19 23:53:00,
2013-02-19 18:58:00,40.8,13.9,30.01,WNW,296,0.0,8.0,33,14.40,,,99.99,Wunderground v.1.15,2013-02-19 23:58:00,
2013-02-19 19:03:00,40.5,14.3,30.01,North,7,0.0,9.0,34,14.40,,,99.99,Wunderground v.1.15,2013-02-20 00:03:00,
2013-02-19 19:08:00,40.3,12.0,30.01,WNW,301,3.0,16.0,31,14.40,,,99.99,Wunderground v.1.15,2013-02-20 00:08:00,
2013-02-19 19:14:00,40.2,11.9,30.01,NW,316,3.0,4.0,31,14.40,,,99.99,Wunderground v.1.15,2013-02-20 00:14:00,
2013-02-19 19:19:00,39.9,10.2,30.02,NW,326,3.0,8.0,29,14.40,,,99.99,Wunderground v.1.15,2013-02-20 00:19:00,
2013-02-19 19:24:00,39.8,11.6,30.02,NNW,344,0.0,4.0,31,15.16,,,99.99,Wunderground v.1.15,2013-02-20 00:24:00,
2013-02-19 19:29:00,39.6,11.4,30.02,West,274,6.0,12.0,31,15.16,,,99.99,Wunderground v.1.15,2013-02-20 00:29:00,
2013-02-19 19:36:00,39.3,11.9,30.03,NW,305,0.0,6.0,32,15.16,,,99.99,Wunderground v.1.15,2013-02-20 00:36:00,
2013-02-19 19:42:00,39.3,10.4,30.03,North,350,0.0,7.0,30,15.16,,,99.99,Wunderground v.1.15,2013-02-20 00:42:00,
2013-02-19 19:47:00,39.2,11.8,30.03,NW,313,1.0,5.0,32,14.40,,,99.99,Wunderground v.1.15,2013-02-20 00:47:00,
2013-02-19 19:52:00,39.1,11.7,30.04,NW,320,0.0,5.0,32,14.40,,,99.99,Wunderground v.1.15,2013-02-20 00:52:00,
2013-02-19 19:57:00,38.9,11.5,30.04,NW,309,10.0,10.0,32,14.40,,,99.99,Wunderground v.1.15,2013-02-20 00:57:00,
2013-02-19 20:02:00,38.6,11.2,30.04,North,0,2.0,10.0,32,15.16,,,99.99,Wunderground v.1.15,2013-02-20 01:02:00,
2013-02-19 20:07:00,38.5,9.7,30.04,North,0,8.0,8.0,30,15.16,,,99.99,Wunderground v.1.15,2013-02-20 01:07:00,
2013-02-19 20:13:00,38.5,10.4,30.04,NW,316,0.0,8.0,31,14.40,,,99.99,Wunderground v.1.15,2013-02-20 01:13:00,
2013-02-19 20:18:00,38.3,11.0,30.04,NW,322,4.0,7.0,32,14.40,,,99.99,Wunderground v.1.15,2013-02-20 01:18:00,
2013-02-19 20:23:00,38.0,10.7,30.04,NNW,332,4.0,7.0,32,15.16,,,99.99,Wunderground v.1.15,2013-02-20 01:23:00,
2013-02-19 20:28:00,37.9,12.0,30.04,NE,51,7.0,7.0,34,14.40,,,99.99,Wunderground v.1.15,2013-02-20 01:28:00,
2013-02-19 20:33:00,37.9,12.6,30.04,NE,54,5.0,8.0,35,14.40,,,99.99,Wunderground v.1.15,2013-02-20 01:33:00,
2013-02-19 20:39:00,37.6,12.4,30.04,NW,318,3.0,6.0,35,15.16,,,99.99,Wunderground v.1.15,2013-02-20 01:39:00,
2013-02-19 20:44:00,37.5,12.3,30.04,West,261,0.0,1.0,35,14.40,,,99.99,Wunderground v.1.15,2013-02-20 01:44:00,
2013-02-19 20:49:00,37.2,12.7,30.05,North,0,2.0,2.0,36,15.16,,,99.99,Wunderground v.1.15,2013-02-20 01:49:00,
2013-02-19 20:54:00,37.0,12.5,30.05,North,0,0.0,0.0,36,15.16,,,99.99,Wunderground v.1.15,2013-02-20 01:54:00,
2013-02-19 20:59:00,36.9,12.4,30.05,ESE,107,0.0,7.0,36,14.40,,,99.99,Wunderground v.1.15,2013-02-20 01:59:00,
2013-02-19 21:06:00,36.8,12.9,30.05,North,353,0.0,2.0,37,15.16,,,99.99,Wunderground v.1.15,2013-02-20 02:06:00,
2013-02-19 21:11:00,36.6,12.7,30.05,North,354,2.0,5.0,37,15.16,,,99.99,Wunderground v.1.15,2013-02-20 02:11:00,
2013-02-19 21:17:00,36.6,12.7,30.05,North,0,1.0,1.0,37,15.16,,,99.99,Wunderground v.1.15,2013-02-20 02:17:00,
2013-02-19 21:22:00,36.6,12.1,30.04,NNW,335,0.0,4.0,36,15.16,,,99.99,Wunderground v.1.15,2013-02-20 02:22:00,
2013-02-19 21:28:00,36.5,12.7,30.04,West,275,2.0,6.0,37,15.16,,,99.99,Wunderground v.1.15,2013-02-20 02:28:00,
2013-02-19 21:33:00,36.2,12.4,30.05,NNW,336,0.0,6.0,37,15.16,,,99.99,Wunderground v.1.15,2013-02-20 02:33:00,
2013-02-19 21:38:00,36.0,12.2,30.05,North,349,0.0,4.0,37,15.16,,,99.99,Wunderground v.1.15,2013-02-20 02:38:00,
2013-02-19 21:44:00,35.9,12.7,30.05,NE,44,1.0,4.0,38,14.40,,,99.99,Wunderground v.1.15,2013-02-20 02:44:00,
2013-02-19 21:49:00,35.9,12.7,30.06,WNW,289,0.0,6.0,38,15.16,,,99.99,Wunderground v.1.15,2013-02-20 02:49:00,
2013-02-19 21:54:00,35.8,12.6,30.06,NNW,340,0.0,8.0,38,15.16,,,99.99,Wunderground v.1.15,2013-02-20 02:54:00,
2013-02-19 21:59:00,35.8,12.6,30.06,NW,315,2.0,6.0,38,15.16,,,99.99,Wunderground v.1.15,2013-02-20 02:59:00,
2013-02-19 22:06:00,35.6,13.0,30.06,NNE,31,0.0,1.0,39,15.16,,,99.99,Wunderground v.1.15,2013-02-20 03:06:00,
2013-02-19 22:12:00,35.5,13.0,30.06,North,359,6.0,11.0,39,15.16,,,99.99,Wunderground v.1.15,2013-02-20 03:12:00,
2013-02-19 22:17:00,35.5,13.0,30.06,NW,326,0.0,1.0,39,15.16,,,99.99,Wunderground v.1.15,2013-02-20 03:17:00,
2013-02-19 22:22:00,35.3,13.3,30.05,North,11,12.0,12.0,40,15.16,,,99.99,Wunderground v.1.15,2013-02-20 03:22:00,
2013-02-19 22:27:00,35.3,12.8,30.05,North,11,1.0,3.0,39,14.40,,,99.99,Wunderground v.1.15,2013-02-20 03:27:00,
2013-02-19 22:32:00,35.2,12.7,30.05,WNW,302,0.0,3.0,39,14.40,,,99.99,Wunderground v.1.15,2013-02-20 03:32:00,
2013-02-19 22:37:00,35.0,11.9,30.05,NW,304,3.0,7.0,38,14.40,,,99.99,Wunderground v.1.15,2013-02-20 03:37:00,
2013-02-19 22:42:00,35.0,11.3,30.05,NW,312,5.0,7.0,37,15.16,,,99.99,Wunderground v.1.15,2013-02-20 03:42:00,
2013-02-19 22:47:00,34.9,11.2,30.06,WNW,291,0.0,6.0,37,15.16,,,99.99,Wunderground v.1.15,2013-02-20 03:47:00,
2013-02-19 22:52:00,34.9,11.2,30.06,North,350,0.0,7.0,37,15.16,,,99.99,Wunderground v.1.15,2013-02-20 03:52:00,
2013-02-19 22:58:00,34.7,11.0,30.06,NNE,30,1.0,2.0,37,14.40,,,99.99,Wunderground v.1.15,2013-02-20 03:58:00,
2013-02-19 23:03:00,34.6,11.0,30.06,West,281,0.0,5.0,37,15.16,,,99.99,Wunderground v.1.15,2013-02-20 04:03:00,
2013-02-19 23:08:00,34.4,10.8,30.06,NNW,330,3.0,3.0,37,14.40,,,99.99,Wunderground v.1.15,2013-02-20 04:08:00,
2013-02-19 23:13:00,34.3,10.7,30.06,NE,45,0.0,3.0,37,14.40,,,99.99,Wunderground v.1.15,2013-02-20 04:13:00,
2013-02-19 23:19:00,34.0,10.4,30.05,North,0,1.0,2.0,37,14.40,,,99.99,Wunderground v.1.15,2013-02-20 04:19:00,
2013-02-19 23:24:00,34.0,10.4,30.05,North,0,0.0,1.0,37,15.16,,,99.99,Wunderground v.1.15,2013-02-20 04:24:00,
2013-02-19 23:30:00,34.0,10.4,30.05,North,354,0.0,7.0,37,15.16,,,99.99,Wunderground v.1.15,2013-02-20 04:30:00,
2013-02-19 23:35:00,33.8,10.8,30.06,NNW,346,0.0,1.0,38,15.16,,,99.99,Wunderground v.1.15,2013-02-20 04:35:00,
2013-02-19 23:40:00,33.5,10.6,30.06,NE,51,0.0,1.0,38,15.16,,,99.99,Wunderground v.1.15,2013-02-20 04:40:00,
2013-02-19 23:46:00,33.4,11.1,30.06,ENE,62,0.0,2.0,39,15.16,,,99.99,Wunderground v.1.15,2013-02-20 04:46:00,
2013-02-19 23:51:00,33.4,11.6,30.07,NE,37,1.0,2.0,40,15.16,,,99.99,Wunderground v.1.15,2013-02-20 04:51:00,
2013-02-19 23:56:00,33.1,11.9,30.07,NNE,24,0.0,3.0,41,15.16,,,99.99,Wunderground v.1.15,2013-02-20 04:56:00,